MSC Maria Saveria — 3FLE8 — position and weather

sailwx.info

Track history (hours):
 
Tides and Currents Weather Stations Pressure Air Temp Water Temp Dewpoint Dewpoint Depression Visibility Wind Speed Wind Dir Waves Ship Positions

MSC Maria Saveria

Last reported at 2017-Apr-12 14:22 UTC. Time now 2017-Apr-23 11:58 UTC.
Position N 37°32' E 023°55'.
Warning: this ship's position is 10 days out of date.

Length 366 m; draft 16.5 m.

Type: Ship (hazmat cat A). MMSI: 372400000.

Date/timePositionNaut miles runAvg speedWind from/ knotsBaromVisibWave heightAir tempDewpointWater temp
2017-Apr-12 14:22N 37°32' E 023°55'1517.9
2017-Apr-12 13:30N 37°42' E 023°41'917.8
2017-Apr-12 13:00N 37°51' E 023°37'611.6
2017-Apr-12 12:30N 37°57' E 023°36'1 1.6
2017-Apr-12 11:59N 37°57' E 023°36'0 0.0
2017-Apr-12 11:29N 37°57' E 023°36'0 0.0
2017-Apr-12 10:59N 37°57' E 023°36'0 0.0
2017-Apr-12 10:29N 37°57' E 023°36'0 0.0
2017-Apr-12 09:59N 37°57' E 023°36'0 0.0
2017-Apr-12 09:29N 37°57' E 023°36'0 0.0
2017-Apr-12 08:59N 37°57' E 023°36'0 0.0
2017-Apr-12 08:29N 37°57' E 023°36'0 0.0
2017-Apr-12 07:59N 37°57' E 023°36'0 0.0
2017-Apr-12 07:29N 37°57' E 023°36'0 0.0
2017-Apr-12 06:59N 37°57' E 023°36'0 0.0
2017-Apr-12 06:14N 37°57' E 023°36'0 0.0
2017-Apr-12 05:59N 37°57' E 023°36'0 0.0
2017-Apr-12 05:29N 37°57' E 023°36'0 0.0
2017-Apr-12 04:59N 37°57' E 023°36'0 0.0
2017-Apr-12 04:29N 37°57' E 023°36'0 0.0
2017-Apr-12 03:59N 37°57' E 023°36'0 0.0
2017-Apr-12 03:29N 37°57' E 023°36'0 0.0
2017-Apr-12 02:59N 37°57' E 023°36'0 0.0
2017-Apr-12 02:29N 37°57' E 023°36'0 0.0
2017-Apr-12 01:59N 37°57' E 023°36'0 0.0
2017-Apr-12 01:26N 37°57' E 023°36'0 0.0
2017-Apr-12 00:59N 37°57' E 023°36'0 0.0
2017-Apr-12 00:29N 37°57' E 023°36'0 0.0
2017-Apr-11 23:59N 37°57' E 023°36'0 0.0
2017-Apr-11 23:29N 37°57' E 023°36'0 0.0
2017-Apr-11 22:59N 37°57' E 023°36'0 0.0
2017-Apr-11 22:29N 37°57' E 023°36'0 0.0
2017-Apr-11 21:53N 37°57' E 023°36'0 0.0
2017-Apr-11 21:29N 37°57' E 023°36'0 0.0
2017-Apr-11 20:59N 37°57' E 023°36'0 0.0
2017-Apr-11 20:29N 37°57' E 023°36'0 0.0
2017-Apr-11 19:59N 37°57' E 023°36'0 0.1
2017-Apr-11 19:30N 37°57' E 023°36'2 3.5
2017-Apr-11 19:00N 37°56' E 023°35'1 2.5
2017-Apr-11 18:30N 37°55' E 023°35'3 6.5
2017-Apr-11 18:00N 37°51' E 023°35'3 6.9
2017-Apr-11 17:31N 37°51' E 023°39'2 4.8
2017-Apr-11 17:00N 37°49' E 023°40'4 7.2
2017-Apr-11 16:30N 37°45' E 023°42'4 7.1
2017-Apr-11 16:00N 37°42' E 023°44'3 6.7
2017-Apr-11 15:31N 37°39' E 023°45'4 7.4
2017-Apr-11 15:00N 37°35' E 023°44'4 7.7
2017-Apr-11 14:30N 37°32' E 023°43'9 9.4
2017-Apr-11 13:31N 37°22' E 023°41'5 9.6
2017-Apr-11 13:01N 37°18' E 023°40'42912.7
2017-Apr-10 03:16N 36°26' E 014°47'415.4
2017-Apr-10 02:59N 36°27' E 014°42'715.2
2017-Apr-10 02:31N 36°29' E 014°33'815.5
2017-Apr-10 02:01N 36°31' E 014°24'815.3
2017-Apr-10 01:30N 36°33' E 014°15'815.4
2017-Apr-10 01:00N 36°35' E 014°06'815.7
2017-Apr-10 00:30N 36°37' E 013°56'815.7
2017-Apr-10 00:00N 36°39' E 013°47'815.7
2017-Apr-09 23:30N 36°41' E 013°37'815.8
2017-Apr-09 23:01N 36°44' E 013°28'18016.2
2017-Apr-09 11:55N 37°36' E 009°52'2416.5
2017-Apr-09 10:26N 37°44' E 009°23'69616.1
2017-Apr-07 15:04N 36°02' W 004°58'115.9
2017-Apr-07 15:00N 36°02' W 004°59'1717.0
2017-Apr-07 14:01N 35°59' W 005°20'917.8
2017-Apr-07 13:31N 35°56' W 005°30'816.6
2017-Apr-07 13:00N 35°55' W 005°40'16115.6
2017-Apr-07 02:43N 36°29' W 008°55'315.0
2017-Apr-07 02:30N 36°30' W 008°58'815.3
2017-Apr-07 02:00N 36°32' W 009°08'2315.1
2017-Apr-07 00:29N 36°46' W 009°31'2014.8
2017-Apr-06 23:09N 37°06' W 009°30'216.2
2017-Apr-06 23:00N 37°08' W 009°28'816.2
2017-Apr-06 22:30N 37°14' W 009°23'816.1
2017-Apr-06 22:01N 37°21' W 009°17'816.1
2017-Apr-06 21:30N 37°28' W 009°12'816.3
2017-Apr-06 21:00N 37°34' W 009°06'816.5
2017-Apr-06 20:31N 37°41' W 009°00'816.3
2017-Apr-06 20:01N 37°48' W 008°54'714.6
2017-Apr-06 19:30N 37°55' W 008°51'1 1.9
2017-Apr-06 18:58N 37°56' W 008°51'0 0.0
2017-Apr-06 18:28N 37°56' W 008°51'0 0.0
2017-Apr-06 17:55N 37°56' W 008°51'0 0.0
2017-Apr-06 17:28N 37°56' W 008°51'0 0.0
2017-Apr-06 16:55N 37°56' W 008°51'0 0.0
2017-Apr-06 16:28N 37°56' W 008°51'0 0.0
2017-Apr-06 15:58N 37°56' W 008°51'0 0.0
2017-Apr-06 15:28N 37°56' W 008°51'0 0.0
2017-Apr-06 14:58N 37°56' W 008°51'0 0.0
2017-Apr-06 13:58N 37°56' W 008°51'0 0.0
2017-Apr-06 13:28N 37°56' W 008°51'0 0.0
2017-Apr-06 12:55N 37°56' W 008°51'0 0.0
2017-Apr-06 12:28N 37°56' W 008°51'0 0.0
2017-Apr-06 11:58N 37°56' W 008°51'0 0.0
2017-Apr-06 11:28N 37°56' W 008°51'0 0.0
2017-Apr-06 10:58N 37°56' W 008°51'0 0.0
2017-Apr-06 10:28N 37°56' W 008°51'0 0.0
2017-Apr-06 09:58N 37°56' W 008°51'0 0.0
2017-Apr-06 09:28N 37°56' W 008°51'0 0.0
2017-Apr-06 08:58N 37°56' W 008°51'0 0.0
2017-Apr-06 08:28N 37°56' W 008°51'0 0.0
2017-Apr-06 07:58N 37°56' W 008°51'0 0.0
2017-Apr-06 07:28N 37°56' W 008°51'0 0.0
2017-Apr-06 06:58N 37°56' W 008°51'0 0.0
2017-Apr-06 06:28N 37°56' W 008°51'0 0.0
2017-Apr-06 05:58N 37°56' W 008°51'0 0.0
2017-Apr-06 05:25N 37°56' W 008°51'0 0.0
2017-Apr-06 04:58N 37°56' W 008°51'0 0.0
2017-Apr-06 04:28N 37°56' W 008°51'0 0.0
2017-Apr-06 04:01N 37°56' W 008°51'0 1.0
2017-Apr-06 03:31N 37°55' W 008°50'3 6.1
2017-Apr-06 03:01N 37°52' W 008°50'2 4.4
2017-Apr-06 02:31N 37°51' W 008°52'1 2.7
2017-Apr-06 02:01N 37°50' W 008°54'2 3.5
2017-Apr-06 01:31N 37°50' W 008°56'4 8.3
2017-Apr-06 01:01N 37°51' W 009°02'713.0
2017-Apr-06 00:31N 37°55' W 009°08'713.7
2017-Apr-06 00:01N 37°60' W 009°14'714.4
2017-Apr-05 23:30N 38°04' W 009°21'714.3
2017-Apr-05 23:01N 38°09' W 009°27'714.4
2017-Apr-05 22:31N 38°14' W 009°34'714.4
2017-Apr-05 22:01N 38°19' W 009°41'714.6
2017-Apr-05 21:30N 38°24' W 009°48'714.8
2017-Apr-05 21:01N 38°29' W 009°55'714.7
2017-Apr-05 20:30N 38°34' W 010°02'714.1
2017-Apr-05 20:00N 38°40' W 010°05'714.8
2017-Apr-05 19:31N 38°48' W 010°06'714.6
2017-Apr-05 19:01N 38°55' W 010°06'714.2
2017-Apr-05 18:31N 39°02' W 010°06'714.5
2017-Apr-05 18:01N 39°09' W 010°06'714.6
2017-Apr-05 17:30N 39°17' W 010°06'714.3
2017-Apr-05 17:01N 39°24' W 010°06'816.6
2017-Apr-05 16:30N 39°32' W 010°06'917.4
2017-Apr-05 16:01N 39°41' W 010°06'917.6
2017-Apr-05 15:31N 39°50' W 010°06'917.5
2017-Apr-05 15:01N 39°58' W 010°06'1817.7
2017-Apr-05 14:00N 40°16' W 010°07'917.6
2017-Apr-05 13:29N 40°25' W 010°07'53914.5
2017-Apr-04 00:23N 48°51' W 005°49'616.3
2017-Apr-04 00:00N 48°55' W 005°41'815.8
2017-Apr-03 23:30N 48°59' W 005°31'815.6
2017-Apr-03 23:00N 49°03' W 005°21'1515.2
2017-Apr-03 22:03N 49°11' W 005°02'214.7
2017-Apr-03 21:57N 49°12' W 004°60'5214.2
2017-Apr-03 18:16N 49°38' W 003°50'414.0
2017-Apr-03 17:57N 49°40' W 003°44'714.4
2017-Apr-03 17:29N 49°44' W 003°35'714.7
2017-Apr-03 16:59N 49°47' W 003°26'714.7
2017-Apr-03 16:30N 49°51' W 003°16'714.6
2017-Apr-03 16:00N 49°54' W 003°06'714.6
2017-Apr-03 15:30N 49°58' W 002°56'714.8
2017-Apr-03 15:00N 49°60' W 002°45'1412.2
2017-Apr-03 13:52N 50°03' W 002°24'3 7.8
2017-Apr-03 13:30N 50°03' W 002°20'4 7.5
2017-Apr-03 13:00N 50°02' W 002°14'4 7.2
2017-Apr-03 12:30N 50°02' W 002°09'4 7.1
2017-Apr-03 12:00N 50°01' W 002°03'4 7.5
2017-Apr-03 11:30N 49°60' W 001°58'5 9.8
2017-Apr-03 11:00N 49°58' W 001°51'4 8.8
2017-Apr-03 10:30N 49°56' W 001°45'4 8.7
2017-Apr-03 10:00N 49°54' W 001°38'5 9.7
2017-Apr-03 09:30N 49°53' W 001°31'510.8
2017-Apr-03 09:00N 49°51' W 001°24'611.4
2017-Apr-03 08:30N 49°49' W 001°15'611.9
2017-Apr-03 08:01N 49°47' W 001°07'612.0
2017-Apr-03 07:30N 49°45' W 000°58'612.2
2017-Apr-03 07:00N 49°43' W 000°49'612.2
2017-Apr-03 06:30N 49°41' W 000°40'612.1
2017-Apr-03 06:00N 49°38' W 000°32'611.7
2017-Apr-03 05:30N 49°36' W 000°23'611.2
2017-Apr-03 05:00N 49°34' W 000°16'510.6
2017-Apr-03 04:30N 49°32' W 000°08'611.5
2017-Apr-03 04:00N 49°30' E 000°01'510.6
2017-Apr-03 03:30N 49°28' E 000°08'1 1.0
2017-Apr-03 02:59N 49°28' E 000°09'0 0.0
2017-Apr-03 02:26N 49°28' E 000°09'0 0.0
2017-Apr-03 01:59N 49°28' E 000°09'0 0.0
2017-Apr-03 01:29N 49°28' E 000°09'0 0.0
2017-Apr-03 00:59N 49°28' E 000°09'0 0.0
2017-Apr-03 00:29N 49°28' E 000°09'0 0.0
2017-Apr-02 23:59N 49°28' E 000°09'0 0.0
2017-Apr-02 23:29N 49°28' E 000°09'0 0.0
2017-Apr-02 22:56N 49°28' E 000°09'0 0.0
2017-Apr-02 22:29N 49°28' E 000°09'0 0.0
2017-Apr-02 21:59N 49°28' E 000°09'0 0.0
2017-Apr-02 21:29N 49°28' E 000°09'0 0.0
2017-Apr-02 20:59N 49°28' E 000°09'0 0.0
2017-Apr-02 20:29N 49°28' E 000°09'0 0.0
2017-Apr-02 19:59N 49°28' E 000°09'0 0.0
2017-Apr-02 19:29N 49°28' E 000°09'0 0.0
2017-Apr-02 18:59N 49°28' E 000°09'0 0.0
2017-Apr-02 18:29N 49°28' E 000°09'0 0.0
2017-Apr-02 17:59N 49°28' E 000°09'0 0.0
2017-Apr-02 17:29N 49°28' E 000°09'0 0.0
2017-Apr-02 16:59N 49°28' E 000°09'0 0.0
2017-Apr-02 16:29N 49°28' E 000°09'0 0.0
2017-Apr-02 15:59N 49°28' E 000°09'0 0.0
2017-Apr-02 15:29N 49°28' E 000°09'0 0.0
2017-Apr-02 14:59N 49°28' E 000°09'0 0.0
2017-Apr-02 14:29N 49°28' E 000°09'  
Track history (hours):
 
Tides and Currents Weather Stations Pressure Air Temp Water Temp Dewpoint Dewpoint Depression Visibility Wind Speed Wind Dir Waves Ship Positions

MSC Maria Saveria

Last reported at 2017-Apr-12 14:22 UTC. Time now 2017-Apr-23 11:58 UTC.
Position N 37°32' E 023°55'.
Warning: this ship's position is 10 days out of date.

Length 366 m; draft 16.5 m.

Type: Ship (hazmat cat A). MMSI: 372400000.

Date/timePositionNaut miles runAvg speedWind from/ knotsBaromVisibWave heightAir tempDewpointWater temp
2017-Apr-12 14:22N 37°32' E 023°55'1517.9
2017-Apr-12 13:30N 37°42' E 023°41'917.8
2017-Apr-12 13:00N 37°51' E 023°37'611.6
2017-Apr-12 12:30N 37°57' E 023°36'1 1.6
2017-Apr-12 11:59N 37°57' E 023°36'0 0.0
2017-Apr-12 11:29N 37°57' E 023°36'0 0.0
2017-Apr-12 10:59N 37°57' E 023°36'0 0.0
2017-Apr-12 10:29N 37°57' E 023°36'0 0.0
2017-Apr-12 09:59N 37°57' E 023°36'0 0.0
2017-Apr-12 09:29N 37°57' E 023°36'0 0.0
2017-Apr-12 08:59N 37°57' E 023°36'0 0.0
2017-Apr-12 08:29N 37°57' E 023°36'0 0.0
2017-Apr-12 07:59N 37°57' E 023°36'0 0.0
2017-Apr-12 07:29N 37°57' E 023°36'0 0.0
2017-Apr-12 06:59N 37°57' E 023°36'0 0.0
2017-Apr-12 06:14N 37°57' E 023°36'0 0.0
2017-Apr-12 05:59N 37°57' E 023°36'0 0.0
2017-Apr-12 05:29N 37°57' E 023°36'0 0.0
2017-Apr-12 04:59N 37°57' E 023°36'0 0.0
2017-Apr-12 04:29N 37°57' E 023°36'0 0.0
2017-Apr-12 03:59N 37°57' E 023°36'0 0.0
2017-Apr-12 03:29N 37°57' E 023°36'0 0.0
2017-Apr-12 02:59N 37°57' E 023°36'0 0.0
2017-Apr-12 02:29N 37°57' E 023°36'0 0.0
2017-Apr-12 01:59N 37°57' E 023°36'0 0.0
2017-Apr-12 01:26N 37°57' E 023°36'0 0.0
2017-Apr-12 00:59N 37°57' E 023°36'0 0.0
2017-Apr-12 00:29N 37°57' E 023°36'0 0.0
2017-Apr-11 23:59N 37°57' E 023°36'0 0.0
2017-Apr-11 23:29N 37°57' E 023°36'0 0.0
2017-Apr-11 22:59N 37°57' E 023°36'0 0.0
2017-Apr-11 22:29N 37°57' E 023°36'0 0.0
2017-Apr-11 21:53N 37°57' E 023°36'0 0.0
2017-Apr-11 21:29N 37°57' E 023°36'0 0.0
2017-Apr-11 20:59N 37°57' E 023°36'0 0.0
2017-Apr-11 20:29N 37°57' E 023°36'0 0.0
2017-Apr-11 19:59N 37°57' E 023°36'0 0.1
2017-Apr-11 19:30N 37°57' E 023°36'2 3.5
2017-Apr-11 19:00N 37°56' E 023°35'1 2.5
2017-Apr-11 18:30N 37°55' E 023°35'3 6.5
2017-Apr-11 18:00N 37°51' E 023°35'3 6.9
2017-Apr-11 17:31N 37°51' E 023°39'2 4.8
2017-Apr-11 17:00N 37°49' E 023°40'4 7.2
2017-Apr-11 16:30N 37°45' E 023°42'4 7.1
2017-Apr-11 16:00N 37°42' E 023°44'3 6.7
2017-Apr-11 15:31N 37°39' E 023°45'4 7.4
2017-Apr-11 15:00N 37°35' E 023°44'4 7.7
2017-Apr-11 14:30N 37°32' E 023°43'9 9.4
2017-Apr-11 13:31N 37°22' E 023°41'5 9.6
2017-Apr-11 13:01N 37°18' E 023°40'42912.7
2017-Apr-10 03:16N 36°26' E 014°47'415.4
2017-Apr-10 02:59N 36°27' E 014°42'715.2
2017-Apr-10 02:31N 36°29' E 014°33'815.5
2017-Apr-10 02:01N 36°31' E 014°24'815.3
2017-Apr-10 01:30N 36°33' E 014°15'815.4
2017-Apr-10 01:00N 36°35' E 014°06'815.7
2017-Apr-10 00:30N 36°37' E 013°56'815.7
2017-Apr-10 00:00N 36°39' E 013°47'815.7
2017-Apr-09 23:30N 36°41' E 013°37'815.8
2017-Apr-09 23:01N 36°44' E 013°28'18016.2
2017-Apr-09 11:55N 37°36' E 009°52'2416.5
2017-Apr-09 10:26N 37°44' E 009°23'69616.1
2017-Apr-07 15:04N 36°02' W 004°58'115.9
2017-Apr-07 15:00N 36°02' W 004°59'1717.0
2017-Apr-07 14:01N 35°59' W 005°20'917.8
2017-Apr-07 13:31N 35°56' W 005°30'816.6
2017-Apr-07 13:00N 35°55' W 005°40'16115.6
2017-Apr-07 02:43N 36°29' W 008°55'315.0
2017-Apr-07 02:30N 36°30' W 008°58'815.3
2017-Apr-07 02:00N 36°32' W 009°08'2315.1
2017-Apr-07 00:29N 36°46' W 009°31'2014.8
2017-Apr-06 23:09N 37°06' W 009°30'216.2
2017-Apr-06 23:00N 37°08' W 009°28'816.2
2017-Apr-06 22:30N 37°14' W 009°23'816.1
2017-Apr-06 22:01N 37°21' W 009°17'816.1
2017-Apr-06 21:30N 37°28' W 009°12'816.3
2017-Apr-06 21:00N 37°34' W 009°06'816.5
2017-Apr-06 20:31N 37°41' W 009°00'816.3
2017-Apr-06 20:01N 37°48' W 008°54'714.6
2017-Apr-06 19:30N 37°55' W 008°51'1 1.9
2017-Apr-06 18:58N 37°56' W 008°51'0 0.0
2017-Apr-06 18:28N 37°56' W 008°51'0 0.0
2017-Apr-06 17:55N 37°56' W 008°51'0 0.0
2017-Apr-06 17:28N 37°56' W 008°51'0 0.0
2017-Apr-06 16:55N 37°56' W 008°51'0 0.0
2017-Apr-06 16:28N 37°56' W 008°51'0 0.0
2017-Apr-06 15:58N 37°56' W 008°51'0 0.0
2017-Apr-06 15:28N 37°56' W 008°51'0 0.0
2017-Apr-06 14:58N 37°56' W 008°51'0 0.0
2017-Apr-06 13:58N 37°56' W 008°51'0 0.0
2017-Apr-06 13:28N 37°56' W 008°51'0 0.0
2017-Apr-06 12:55N 37°56' W 008°51'0 0.0
2017-Apr-06 12:28N 37°56' W 008°51'0 0.0
2017-Apr-06 11:58N 37°56' W 008°51'0 0.0
2017-Apr-06 11:28N 37°56' W 008°51'0 0.0
2017-Apr-06 10:58N 37°56' W 008°51'0 0.0
2017-Apr-06 10:28N 37°56' W 008°51'0 0.0
2017-Apr-06 09:58N 37°56' W 008°51'0 0.0
2017-Apr-06 09:28N 37°56' W 008°51'0 0.0
2017-Apr-06 08:58N 37°56' W 008°51'0 0.0
2017-Apr-06 08:28N 37°56' W 008°51'0 0.0
2017-Apr-06 07:58N 37°56' W 008°51'0 0.0
2017-Apr-06 07:28N 37°56' W 008°51'0 0.0
2017-Apr-06 06:58N 37°56' W 008°51'0 0.0
2017-Apr-06 06:28N 37°56' W 008°51'0 0.0
2017-Apr-06 05:58N 37°56' W 008°51'0 0.0
2017-Apr-06 05:25N 37°56' W 008°51'0 0.0
2017-Apr-06 04:58N 37°56' W 008°51'0 0.0
2017-Apr-06 04:28N 37°56' W 008°51'0 0.0
2017-Apr-06 04:01N 37°56' W 008°51'0 1.0
2017-Apr-06 03:31N 37°55' W 008°50'3 6.1
2017-Apr-06 03:01N 37°52' W 008°50'2 4.4
2017-Apr-06 02:31N 37°51' W 008°52'1 2.7
2017-Apr-06 02:01N 37°50' W 008°54'2 3.5
2017-Apr-06 01:31N 37°50' W 008°56'4 8.3
2017-Apr-06 01:01N 37°51' W 009°02'713.0
2017-Apr-06 00:31N 37°55' W 009°08'713.7
2017-Apr-06 00:01N 37°60' W 009°14'714.4
2017-Apr-05 23:30N 38°04' W 009°21'714.3
2017-Apr-05 23:01N 38°09' W 009°27'714.4
2017-Apr-05 22:31N 38°14' W 009°34'714.4
2017-Apr-05 22:01N 38°19' W 009°41'714.6
2017-Apr-05 21:30N 38°24' W 009°48'714.8
2017-Apr-05 21:01N 38°29' W 009°55'714.7
2017-Apr-05 20:30N 38°34' W 010°02'714.1
2017-Apr-05 20:00N 38°40' W 010°05'714.8
2017-Apr-05 19:31N 38°48' W 010°06'714.6
2017-Apr-05 19:01N 38°55' W 010°06'714.2
2017-Apr-05 18:31N 39°02' W 010°06'714.5
2017-Apr-05 18:01N 39°09' W 010°06'714.6
2017-Apr-05 17:30N 39°17' W 010°06'714.3
2017-Apr-05 17:01N 39°24' W 010°06'816.6
2017-Apr-05 16:30N 39°32' W 010°06'917.4
2017-Apr-05 16:01N 39°41' W 010°06'917.6
2017-Apr-05 15:31N 39°50' W 010°06'917.5
2017-Apr-05 15:01N 39°58' W 010°06'1817.7
2017-Apr-05 14:00N 40°16' W 010°07'917.6
2017-Apr-05 13:29N 40°25' W 010°07'53914.5
2017-Apr-04 00:23N 48°51' W 005°49'616.3
2017-Apr-04 00:00N 48°55' W 005°41'815.8
2017-Apr-03 23:30N 48°59' W 005°31'815.6
2017-Apr-03 23:00N 49°03' W 005°21'1515.2
2017-Apr-03 22:03N 49°11' W 005°02'214.7
2017-Apr-03 21:57N 49°12' W 004°60'5214.2
2017-Apr-03 18:16N 49°38' W 003°50'414.0
2017-Apr-03 17:57N 49°40' W 003°44'714.4
2017-Apr-03 17:29N 49°44' W 003°35'714.7
2017-Apr-03 16:59N 49°47' W 003°26'714.7
2017-Apr-03 16:30N 49°51' W 003°16'714.6
2017-Apr-03 16:00N 49°54' W 003°06'714.6
2017-Apr-03 15:30N 49°58' W 002°56'714.8
2017-Apr-03 15:00N 49°60' W 002°45'1412.2
2017-Apr-03 13:52N 50°03' W 002°24'3 7.8
2017-Apr-03 13:30N 50°03' W 002°20'4 7.5
2017-Apr-03 13:00N 50°02' W 002°14'4 7.2
2017-Apr-03 12:30N 50°02' W 002°09'4 7.1
2017-Apr-03 12:00N 50°01' W 002°03'4 7.5
2017-Apr-03 11:30N 49°60' W 001°58'5 9.8
2017-Apr-03 11:00N 49°58' W 001°51'4 8.8
2017-Apr-03 10:30N 49°56' W 001°45'4 8.7
2017-Apr-03 10:00N 49°54' W 001°38'5 9.7
2017-Apr-03 09:30N 49°53' W 001°31'510.8
2017-Apr-03 09:00N 49°51' W 001°24'611.4
2017-Apr-03 08:30N 49°49' W 001°15'611.9
2017-Apr-03 08:01N 49°47' W 001°07'612.0
2017-Apr-03 07:30N 49°45' W 000°58'612.2
2017-Apr-03 07:00N 49°43' W 000°49'612.2
2017-Apr-03 06:30N 49°41' W 000°40'612.1
2017-Apr-03 06:00N 49°38' W 000°32'611.7
2017-Apr-03 05:30N 49°36' W 000°23'611.2
2017-Apr-03 05:00N 49°34' W 000°16'510.6
2017-Apr-03 04:30N 49°32' W 000°08'611.5
2017-Apr-03 04:00N 49°30' E 000°01'510.6
2017-Apr-03 03:30N 49°28' E 000°08'1 1.0
2017-Apr-03 02:59N 49°28' E 000°09'0 0.0
2017-Apr-03 02:26N 49°28' E 000°09'0 0.0
2017-Apr-03 01:59N 49°28' E 000°09'0 0.0
2017-Apr-03 01:29N 49°28' E 000°09'0 0.0
2017-Apr-03 00:59N 49°28' E 000°09'0 0.0
2017-Apr-03 00:29N 49°28' E 000°09'0 0.0
2017-Apr-02 23:59N 49°28' E 000°09'0 0.0
2017-Apr-02 23:29N 49°28' E 000°09'0 0.0
2017-Apr-02 22:56N 49°28' E 000°09'0 0.0
2017-Apr-02 22:29N 49°28' E 000°09'0 0.0
2017-Apr-02 21:59N 49°28' E 000°09'0 0.0
2017-Apr-02 21:29N 49°28' E 000°09'0 0.0
2017-Apr-02 20:59N 49°28' E 000°09'0 0.0
2017-Apr-02 20:29N 49°28' E 000°09'0 0.0
2017-Apr-02 19:59N 49°28' E 000°09'0 0.0
2017-Apr-02 19:29N 49°28' E 000°09'0 0.0
2017-Apr-02 18:59N 49°28' E 000°09'0 0.0
2017-Apr-02 18:29N 49°28' E 000°09'0 0.0
2017-Apr-02 17:59N 49°28' E 000°09'0 0.0
2017-Apr-02 17:29N 49°28' E 000°09'0 0.0
2017-Apr-02 16:59N 49°28' E 000°09'0 0.0
2017-Apr-02 16:29N 49°28' E 000°09'0 0.0
2017-Apr-02 15:59N 49°28' E 000°09'0 0.0
2017-Apr-02 15:29N 49°28' E 000°09'0 0.0
2017-Apr-02 14:59N 49°28' E 000°09'0 0.0
2017-Apr-02 14:29N 49°28' E 000°09'  

Dump ship's entire track history